Time;durP1;ratioP1;P1;durP2;ratioP2;P2;SDS_P1;SDS_P2;PMS_P1;PMS_P2;Temp;Humidity;BMP_temperature;BMP_pressure;BME280_temperature;BME280_humidity;BME280_pressure;Samples;Min_cycle;Max_cycle;Signal;HPM_P1;HPM_P2
2022/09/16 00:00:19;;;;;;;2.75;1.55;;;20.30;99.90;;;;;;5032857;28;20017;-66
2022/09/16 00:02:45;;;;;;;8.32;3.65;;;20.30;99.90;;;;;;5033480;28;20080;-65
2022/09/16 00:05:11;;;;;;;22.13;9.48;;;20.20;99.90;;;;;;5034104;28;20030;-67
2022/09/16 00:07:37;;;;;;;16.95;9.50;;;20.20;99.90;;;;;;5045099;28;20045;-66
2022/09/16 00:10:04;;;;;;;15.10;7.60;;;20.20;99.90;;;;;;5035623;28;20057;-66
2022/09/16 00:12:31;;;;;;;6.78;2.97;;;20.30;99.90;;;;;;5033780;28;20025;-66
2022/09/16 00:14:57;;;;;;;5.85;2.53;;;20.20;99.90;;;;;;5033863;28;20040;-66
2022/09/16 00:17:23;;;;;;;6.03;1.95;;;20.10;99.90;;;;;;5041755;28;20371;-66
2022/09/16 00:19:49;;;;;;;6.70;1.80;;;20.10;99.90;;;;;;5039013;28;20060;-66
2022/09/16 00:22:16;;;;;;;2.42;1.27;;;20.20;99.90;;;;;;5033521;28;20040;-65
2022/09/16 00:24:42;;;;;;;2.97;1.30;;;20.10;99.90;;;;;;5033490;28;20056;-65
2022/09/16 00:27:09;;;;;;;4.28;1.83;;;20.10;99.90;;;;;;5033918;28;20049;-65
2022/09/16 00:29:35;;;;;;;4.43;1.60;;;20.10;99.90;;;;;;5046565;28;20483;-65
2022/09/16 00:32:01;;;;;;;7.38;1.55;;;20.00;99.90;;;;;;5036631;28;20087;-66
2022/09/16 00:34:27;;;;;;;4.20;1.85;;;20.00;99.90;;;;;;5039379;28;20494;-66
2022/09/16 00:36:53;;;;;;;3.65;1.55;;;19.90;99.90;;;;;;5034078;28;20029;-66
2022/09/16 00:39:18;;;;;;;2.10;1.30;;;19.90;99.90;;;;;;5046322;28;20028;-66
2022/09/16 00:41:44;;;;;;;1.80;1.33;;;19.90;99.90;;;;;;5044717;28;20091;-67
2022/09/16 00:44:47;;;;;;;2.63;1.27;;;19.90;99.90;;;;;;5034034;28;20037;-66
2022/09/16 00:47:19;;;;;;;4.35;1.25;;;20.00;99.90;;;;;;5034824;28;20076;-66
2022/09/16 00:49:45;;;;;;;11.23;1.20;;;20.10;99.90;;;;;;5044250;28;20075;-66
2022/09/16 00:52:12;;;;;;;2.53;1.35;;;20.10;99.90;;;;;;5036473;28;20025;-65
2022/09/16 00:54:39;;;;;;;4.03;1.40;;;20.10;99.90;;;;;;5032904;28;20726;-66
2022/09/16 00:57:07;;;;;;;3.17;1.45;;;20.00;99.90;;;;;;5033886;28;20529;-66
2022/09/16 00:59:37;;;;;;;3.40;1.17;;;19.90;99.90;;;;;;5034987;28;20029;-66
2022/09/16 01:02:10;;;;;;;6.32;1.20;;;20.00;99.90;;;;;;5050520;28;20033;-66
2022/09/16 01:04:47;;;;;;;3.28;1.00;;;20.00;99.90;;;;;;5037457;28;20037;-65
2022/09/16 01:07:14;;;;;;;2.78;1.02;;;20.00;99.90;;;;;;5041070;28;20052;-66
2022/09/16 01:09:40;;;;;;;2.92;1.30;;;19.90;99.90;;;;;;5043745;28;20738;-66
2022/09/16 01:12:06;;;;;;;2.33;1.42;;;20.00;99.90;;;;;;5055308;28;20455;-65
2022/09/16 01:17:36;;;;;;;4.22;1.70;;;20.00;99.90;;;;;;5046840;28;20033;-66
2022/09/16 01:20:21;;;;;;;5.93;1.70;;;19.90;99.90;;;;;;5029882;28;20499;-66
2022/09/16 01:23:34;;;;;;;4.00;1.45;;;19.90;99.90;;;;;;5029713;28;20096;-65
2022/09/16 01:26:06;;;;;;;3.83;1.27;;;19.90;99.90;;;;;;4962079;28;20042;-66
2022/09/16 01:28:40;;;;;;;2.55;1.42;;;19.80;99.90;;;;;;4970719;28;20109;-66
2022/09/16 01:31:19;;;;;;;4.05;1.70;;;19.90;99.90;;;;;;4970840;28;20042;-66
2022/09/16 01:34:12;;;;;;;4.05;1.40;;;19.90;99.90;;;;;;4970759;28;20086;-65
2022/09/16 01:36:47;;;;;;;5.88;1.85;;;19.90;99.90;;;;;;4970783;28;20101;-66
2022/09/16 01:39:27;;;;;;;6.28;2.22;;;19.80;99.90;;;;;;4969770;28;20027;-64
2022/09/16 01:42:10;;;;;;;4.47;1.83;;;19.80;99.90;;;;;;4970583;28;20038;-66
2022/09/16 01:45:30;;;;;;;9.85;2.55;;;19.80;99.90;;;;;;4970778;28;20186;-65
2022/09/16 01:48:04;;;;;;;3.53;1.80;;;19.80;99.90;;;;;;4912802;29;20099;-66
2022/09/16 01:50:40;;;;;;;2.65;1.35;;;19.80;99.90;;;;;;4913292;29;20051;-66
2022/09/16 01:53:44;;;;;;;4.53;1.60;;;19.80;99.90;;;;;;4913637;29;20071;-66
2022/09/16 01:56:19;;;;;;;3.17;1.73;;;19.70;99.90;;;;;;4913648;29;20063;-66
2022/09/16 01:59:01;;;;;;;6.63;1.92;;;19.80;99.90;;;;;;4912858;29;20071;-65
2022/09/16 02:01:34;;;;;;;;;;;19.80;99.90;;;;;;4922098;29;20049;-66
2022/09/16 02:04:15;;;;;;;4.50;1.33;;;19.80;99.90;;;;;;4951450;29;20018;-66
2022/09/16 02:06:45;;;;;;;5.10;2.30;;;19.80;99.90;;;;;;4951176;29;20375;-66
2022/09/16 02:09:17;;;;;;;4.72;1.98;;;19.90;99.90;;;;;;4951305;29;20046;-65
2022/09/16 02:11:48;;;;;;;4.75;1.50;;;19.90;99.90;;;;;;4950960;29;20044;-67
2022/09/16 02:14:19;;;;;;;5.05;1.65;;;19.90;99.90;;;;;;4951424;28;20063;-66
2022/09/16 02:16:52;;;;;;;3.50;1.80;;;19.90;99.90;;;;;;4951432;29;20106;-66
2022/09/16 02:19:50;;;;;;;6.25;1.90;;;19.90;99.90;;;;;;4951488;28;20039;-66
2022/09/16 02:22:24;;;;;;;2.40;1.52;;;19.90;99.90;;;;;;4951475;29;20513;-65
2022/09/16 02:24:51;;;;;;;6.68;1.65;;;19.90;99.90;;;;;;5024364;28;20029;-65
2022/09/16 02:27:20;;;;;;;2.45;1.50;;;19.90;99.90;;;;;;5029400;28;20545;-65
2022/09/16 02:29:58;;;;;;;6.55;1.42;;;20.00;99.90;;;;;;5029356;28;20495;-67
2022/09/16 02:32:27;;;;;;;5.22;1.98;;;19.80;99.90;;;;;;5029001;28;20476;-65
2022/09/16 02:34:55;;;;;;;4.78;2.25;;;19.60;99.90;;;;;;5029487;28;20042;-66
2022/09/16 02:37:27;;;;;;;6.53;2.58;;;19.50;99.90;;;;;;5029217;28;20029;-66
2022/09/16 02:40:00;;;;;;;3.65;2.13;;;19.60;99.90;;;;;;5029341;28;20041;-66
2022/09/16 02:42:28;;;;;;;4.80;2.70;;;19.60;99.90;;;;;;5029264;28;20049;-66
2022/09/16 02:44:54;;;;;;;7.45;2.33;;;19.70;99.90;;;;;;5028944;28;20030;-66
2022/09/16 02:47:42;;;;;;;4.40;1.92;;;19.70;99.90;;;;;;5028804;28;20041;-65
2022/09/16 02:50:34;;;;;;;5.38;2.10;;;19.70;99.90;;;;;;5029172;28;20172;-66
2022/09/16 02:53:25;;;;;;;4.13;1.87;;;19.60;99.90;;;;;;5033237;28;20435;-65
2022/09/16 02:56:01;;;;;;;8.80;1.90;;;19.50;99.90;;;;;;5025063;28;20325;-66
2022/09/16 02:58:26;;;;;;;13.98;2.53;;;19.40;99.90;;;;;;5039145;28;20039;-66
2022/09/16 03:00:54;;;;;;;6.68;1.95;;;19.50;99.90;;;;;;5038614;28;20100;-66
2022/09/16 03:03:20;;;;;;;5.97;2.20;;;19.40;99.90;;;;;;5035254;28;20580;-66
2022/09/16 03:06:07;;;;;;;9.93;2.60;;;19.30;99.90;;;;;;5034840;28;20021;-66
2022/09/16 03:08:34;;;;;;;5.75;1.77;;;19.30;99.90;;;;;;5049000;28;20069;-65
2022/09/16 03:11:41;;;;;;;8.77;2.38;;;19.30;99.90;;;;;;5034576;28;20037;-67
2022/09/16 03:14:30;;;;;;;4.43;1.63;;;19.40;99.90;;;;;;5028355;28;20022;-66
2022/09/16 03:17:04;;;;;;;9.70;2.28;;;19.40;99.90;;;;;;4935786;29;20039;-66
2022/09/16 03:19:49;;;;;;;5.35;1.80;;;19.40;99.90;;;;;;4934714;29;20040;-66
2022/09/16 03:22:28;;;;;;;5.20;2.05;;;19.40;99.90;;;;;;4946225;29;20043;-64
2022/09/16 03:25:23;;;;;;;8.10;1.90;;;19.40;99.90;;;;;;4946485;29;20504;-66
2022/09/16 03:28:22;;;;;;;4.78;2.00;;;19.40;99.90;;;;;;4944422;28;20039;-66
2022/09/16 03:30:57;;;;;;;6.10;2.13;;;19.40;99.90;;;;;;4888982;29;20045;-66
2022/09/16 03:33:28;;;;;;;4.13;2.08;;;19.50;99.90;;;;;;4878005;29;20037;-65
2022/09/16 03:35:58;;;;;;;7.60;2.35;;;19.60;99.90;;;;;;4878412;29;20557;-66
2022/09/16 03:38:24;;;;;;;7.10;2.58;;;19.50;99.90;;;;;;4882807;29;20620;-66
2022/09/16 03:40:50;;;;;;;6.10;2.28;;;19.40;99.90;;;;;;4881827;29;20041;-66
2022/09/16 03:43:16;;;;;;;7.07;2.40;;;19.40;99.90;;;;;;4877455;29;20072;-66
2022/09/16 03:45:42;;;;;;;6.53;1.95;;;19.40;99.90;;;;;;4890320;29;20047;-66
2022/09/16 03:48:10;;;;;;;7.75;2.45;;;19.40;99.90;;;;;;4904086;29;20056;-66
2022/09/16 03:50:36;;;;;;;6.50;2.83;;;19.40;99.90;;;;;;4933552;29;20115;-66
2022/09/16 03:53:02;;;;;;;4.32;2.35;;;19.40;99.90;;;;;;4936118;28;20518;-66
2022/09/16 03:55:30;;;;;;;5.45;2.38;;;18.80;99.90;;;;;;4963824;28;20046;-65
2022/09/16 03:57:56;;;;;;;6.15;2.45;;;19.20;99.90;;;;;;4975452;28;20034;-66
2022/09/16 04:00:22;;;;;;;6.10;2.63;;;19.10;99.90;;;;;;4974762;28;20386;-66
2022/09/16 04:02:48;;;;;;;4.32;2.30;;;;;;;;;;4974003;28;20059;-67
2022/09/16 04:05:14;;;;;;;3.67;2.30;;;;;;;;;;4983629;28;20065;-65
2022/09/16 04:07:40;;;;;;;8.10;2.65;;;19.00;99.90;;;;;;5031107;28;20055;-66
2022/09/16 04:10:07;;;;;;;5.78;2.25;;;;;;;;;;5036154;28;20034;-65
2022/09/16 04:12:33;;;;;;;4.18;2.10;;;;;;;;;;5041564;28;20462;-66
2022/09/16 04:14:59;;;;;;;9.02;2.25;;;;;;;;;;5034603;28;20061;-66
2022/09/16 04:17:25;;;;;;;5.40;2.38;;;;;;;;;;5032203;28;20045;-65
2022/09/16 04:19:52;;;;;;;8.25;2.63;;;;;;;;;;5032720;28;20033;-66
2022/09/16 04:22:18;;;;;;;3.03;1.95;;;;;;;;;;5032848;28;20681;-66
2022/09/16 04:24:44;;;;;;;5.72;1.88;;;;;;;;;;5047566;28;20090;-65
2022/09/16 04:27:10;;;;;;;7.80;2.13;;;;;;;;;;5044889;28;20493;-66
2022/09/16 04:29:36;;;;;;;7.63;2.90;;;;;;;;;;5033812;28;20120;-67
2022/09/16 04:32:02;;;;;;;4.75;1.90;;;;;;;;;;5032653;28;20053;-67
2022/09/16 04:34:31;;;;;;;3.55;1.90;;;;;;;;;;5032658;28;20045;-68
2022/09/16 04:36:57;;;;;;;5.95;2.13;;;;;;;;;;5032231;28;20025;-68
2022/09/16 04:39:23;;;;;;;9.63;2.45;;;19.30;99.90;;;;;;5031876;28;20033;-67
2022/09/16 04:41:49;;;;;;;8.77;2.50;;;19.10;99.90;;;;;;5046229;28;20386;-64
2022/09/16 04:44:15;;;;;;;6.70;2.40;;;;;;;;;;5032190;28;20507;-68
2022/09/16 04:46:41;;;;;;;5.40;2.20;;;18.80;99.90;;;;;;5045922;28;20017;-67
2022/09/16 04:49:07;;;;;;;3.85;2.60;;;18.80;99.90;;;;;;5051975;28;20532;-68
2022/09/16 04:51:32;;;;;;;5.13;2.33;;;18.70;99.90;;;;;;5037845;28;20148;-68
2022/09/16 04:54:00;;;;;;;6.53;2.75;;;18.90;99.90;;;;;;5034548;28;20056;-68
2022/09/16 04:56:30;;;;;;;5.70;2.10;;;18.80;99.90;;;;;;5043009;28;20025;-68
2022/09/16 04:58:59;;;;;;;6.18;2.42;;;18.90;99.90;;;;;;5033094;28;20064;-68
2022/09/16 05:01:36;;;;;;;6.45;2.40;;;18.90;99.90;;;;;;5047115;28;20040;-68
2022/09/16 05:04:04;;;;;;;7.60;2.78;;;18.90;99.90;;;;;;5040357;28;20083;-68
2022/09/16 05:06:35;;;;;;;4.05;2.25;;;19.00;99.90;;;;;;5034181;28;20407;-68
2022/09/16 05:09:02;;;;;;;9.48;2.38;;;19.10;99.90;;;;;;5050098;28;20433;-68
2022/09/16 05:11:30;;;;;;;12.60;2.22;;;19.00;99.90;;;;;;5052095;28;20026;-68
2022/09/16 05:14:04;;;;;;;5.00;1.88;;;19.20;99.90;;;;;;5038861;28;20029;-68
2022/09/16 05:16:31;;;;;;;4.63;1.83;;;20.00;99.90;;;;;;5045677;28;20021;-68
2022/09/16 05:18:58;;;;;;;5.72;2.38;;;19.50;99.90;;;;;;5051678;28;20029;-68
2022/09/16 05:21:26;;;;;;;2.03;1.60;;;19.40;99.90;;;;;;5051601;28;20017;-68
2022/09/16 05:23:52;;;;;;;5.18;2.10;;;19.60;99.90;;;;;;5044140;28;20037;-67
2022/09/16 05:26:24;;;;;;;6.80;2.30;;;19.60;99.90;;;;;;5031947;28;20483;-68
2022/09/16 05:28:50;;;;;;;7.47;2.97;;;19.70;99.90;;;;;;5031397;28;20079;-67
2022/09/16 05:31:20;;;;;;;4.63;2.05;;;19.80;99.90;;;;;;5043861;28;20021;-68
2022/09/16 05:34:17;;;;;;;9.02;2.50;;;20.00;99.90;;;;;;5034082;28;20487;-68
2022/09/16 05:36:46;;;;;;;4.82;2.20;;;20.00;99.90;;;;;;5031377;28;20041;-69
2022/09/16 05:39:14;;;;;;;7.32;1.95;;;20.10;99.90;;;;;;5039060;28;20502;-68
2022/09/16 05:41:41;;;;;;;5.75;2.53;;;20.20;99.90;;;;;;5037592;28;20037;-68
2022/09/16 05:44:07;;;;;;;11.27;3.45;;;20.10;99.90;;;;;;5037561;28;20112;-69
2022/09/16 05:46:34;;;;;;;15.48;7.97;;;20.10;99.90;;;;;;5039442;28;20514;-68
2022/09/16 05:49:00;;;;;;;9.63;5.00;;;20.20;99.90;;;;;;5031613;28;20479;-69
2022/09/16 05:51:26;;;;;;;9.52;4.50;;;20.20;99.90;;;;;;5031674;28;20396;-69
2022/09/16 05:53:53;;;;;;;8.15;3.72;;;20.20;99.90;;;;;;5045327;28;20017;-68
2022/09/16 05:56:24;;;;;;;13.18;4.53;;;20.20;99.90;;;;;;5031628;28;20025;-66
2022/09/16 05:58:54;;;;;;;10.77;4.72;;;20.30;99.90;;;;;;5031061;28;20387;-68
2022/09/16 06:01:26;;;;;;;9.07;2.78;;;20.30;99.90;;;;;;5031440;28;20472;-68
2022/09/16 06:03:53;;;;;;;6.28;3.20;;;20.40;99.90;;;;;;5030840;28;20042;-69
2022/09/16 06:06:35;;;;;;;11.57;4.13;;;20.40;99.90;;;;;;5032575;28;20023;-69
2022/09/16 06:09:07;;;;;;;6.68;3.25;;;20.50;99.90;;;;;;5041757;28;20081;-69
2022/09/16 06:11:35;;;;;;;;;;;20.60;99.90;;;;;;5031925;28;20047;-67
2022/09/16 06:14:01;;;;;;;8.15;2.95;;;20.60;99.90;;;;;;5035392;28;20256;-69
2022/09/16 06:16:31;;;;;;;9.85;3.63;;;20.70;99.90;;;;;;5031564;28;20037;-69
2022/09/16 06:18:58;;;;;;;8.50;3.55;;;20.90;99.90;;;;;;5031476;28;20486;-68
2022/09/16 06:21:24;;;;;;;13.18;4.40;;;21.10;99.90;;;;;;5044770;28;20025;-68
2022/09/16 06:23:50;;;;;;;9.65;5.10;;;21.20;99.90;;;;;;5041702;28;20067;-68
2022/09/16 06:26:19;;;;;;;6.22;3.63;;;21.20;99.90;;;;;;5036272;28;20075;-68
2022/09/16 06:28:46;;;;;;;7.38;4.85;;;21.70;99.90;;;;;;5041087;28;20025;-68
2022/09/16 06:31:20;;;;;;;11.50;4.75;;;21.80;99.90;;;;;;5055231;28;20025;-68
2022/09/16 06:33:49;;;;;;;7.78;4.30;;;21.70;99.90;;;;;;5037721;28;20030;-68
2022/09/16 06:36:21;;;;;;;8.85;3.95;;;21.80;99.90;;;;;;5035197;28;20013;-66
2022/09/16 06:38:48;;;;;;;8.07;3.80;;;21.80;99.90;;;;;;5045672;28;20084;-68
2022/09/16 06:41:15;;;;;;;7.82;3.80;;;22.00;99.90;;;;;;5043977;28;20025;-68
2022/09/16 06:43:42;;;;;;;6.43;4.18;;;22.10;99.90;;;;;;5054925;28;20062;-68
2022/09/16 06:46:17;;;;;;;6.93;3.38;;;22.40;99.90;;;;;;5048104;28;20060;-67
2022/09/16 06:48:49;;;;;;;7.82;3.30;;;22.40;99.90;;;;;;5049177;28;20082;-68
2022/09/16 06:51:17;;;;;;;8.55;3.60;;;22.30;99.90;;;;;;5034886;28;20076;-69
2022/09/16 06:53:44;;;;;;;6.85;3.10;;;22.20;99.90;;;;;;5034773;28;20021;-70
2022/09/16 06:56:13;;;;;;;7.75;3.55;;;22.30;99.90;;;;;;5038669;28;20128;-70
2022/09/16 06:58:41;;;;;;;11.10;3.47;;;22.20;99.90;;;;;;5035190;28;20041;-69
2022/09/16 07:01:11;;;;;;;7.93;2.95;;;21.80;99.90;;;;;;5038824;28;20021;-69
2022/09/16 07:03:42;;;;;;;7.70;3.42;;;21.60;99.90;;;;;;5043758;28;20133;-69
2022/09/16 07:06:10;;;;;;;14.85;4.45;;;21.30;99.90;;;;;;5034010;28;20021;-68
2022/09/16 07:08:37;;;;;;;13.35;4.63;;;21.40;99.90;;;;;;5034240;28;20044;-69
2022/09/16 07:11:21;;;;;;;9.32;4.00;;;21.30;99.90;;;;;;5034306;28;20439;-71
2022/09/16 07:13:48;;;;;;;10.00;3.55;;;21.20;99.90;;;;;;5040007;28;20422;-71
2022/09/16 07:16:19;;;;;;;10.15;4.38;;;21.10;99.90;;;;;;5046697;28;20104;-71
2022/09/16 07:18:47;;;;;;;8.50;3.97;;;21.10;99.90;;;;;;5048222;28;20030;-71
2022/09/16 07:21:17;;;;;;;12.48;6.03;;;21.10;99.90;;;;;;5034243;28;20030;-70
2022/09/16 07:23:44;;;;;;;11.85;5.70;;;20.90;99.90;;;;;;5038207;28;20324;-71
2022/09/16 07:26:13;;;;;;;9.07;4.15;;;20.90;99.90;;;;;;5043520;28;20033;-71
2022/09/16 07:28:40;;;;;;;8.98;4.82;;;20.90;99.90;;;;;;5037454;28;20055;-71
2022/09/16 07:31:09;;;;;;;8.57;4.80;;;20.90;99.90;;;;;;5046705;28;20017;-71
2022/09/16 07:33:40;;;;;;;11.40;6.00;;;20.70;99.90;;;;;;5051506;28;20021;-71
2022/09/16 07:36:08;;;;;;;11.73;5.82;;;20.80;99.90;;;;;;5030700;28;20472;-68
2022/09/16 07:38:34;;;;;;;11.07;5.13;;;20.70;99.90;;;;;;5047076;28;20044;-71
2022/09/16 07:41:22;;;;;;;10.20;4.25;;;20.70;99.90;;;;;;5046728;28;20064;-71
2022/09/16 07:43:49;;;;;;;9.98;4.25;;;20.70;99.90;;;;;;5047500;28;20594;-71
2022/09/16 07:46:17;;;;;;;9.63;3.42;;;20.90;99.90;;;;;;5033623;28;20036;-70
2022/09/16 07:48:44;;;;;;;6.13;3.30;;;21.20;99.90;;;;;;5033799;28;20053;-71
2022/09/16 07:51:13;;;;;;;3.00;2.33;;;21.30;99.90;;;;;;5053741;28;20028;-70
2022/09/16 07:53:41;;;;;;;9.52;3.40;;;21.30;99.90;;;;;;5051877;28;20025;-71
2022/09/16 07:56:13;;;;;;;6.55;3.10;;;21.30;99.90;;;;;;5038806;28;20022;-69
2022/09/16 07:58:39;;;;;;;9.57;3.38;;;21.30;99.90;;;;;;5033923;28;20042;-70
2022/09/16 08:01:06;;;;;;;4.10;2.60;;;21.40;99.90;;;;;;5047926;28;20032;-69
2022/09/16 08:03:37;;;;;;;6.10;2.58;;;21.40;99.90;;;;;;5052037;28;20037;-71
2022/09/16 08:06:12;;;;;;;5.95;3.00;;;21.60;99.90;;;;;;5041296;28;20068;-71
2022/09/16 08:08:38;;;;;;;6.20;2.95;;;21.80;99.90;;;;;;5047471;28;20064;-71
2022/09/16 08:11:04;;;;;;;8.07;3.38;;;21.90;99.90;;;;;;5049649;28;20021;-71
2022/09/16 08:13:32;;;;;;;5.57;2.90;;;22.20;99.90;;;;;;5034417;28;20113;-70
2022/09/16 08:16:04;;;;;;;5.65;3.30;;;22.30;99.90;;;;;;5033338;28;20039;-67
2022/09/16 08:18:30;;;;;;;4.32;2.60;;;22.20;99.90;;;;;;5047255;28;20032;-71
2022/09/16 08:20:56;;;;;;;7.25;2.92;;;22.30;99.90;;;;;;5033475;28;20112;-70
2022/09/16 08:23:22;;;;;;;6.88;2.50;;;22.40;99.90;;;;;;5048067;28;20577;-69
2022/09/16 08:25:57;;;;;;;10.02;2.85;;;22.30;99.90;;;;;;5033634;28;20096;-70
2022/09/16 08:28:23;;;;;;;5.25;2.88;;;22.10;99.90;;;;;;5048301;28;20086;-69
2022/09/16 08:30:49;;;;;;;5.75;3.33;;;22.10;99.90;;;;;;5043548;28;20095;-69
2022/09/16 08:33:19;;;;;;;7.28;3.85;;;22.20;99.90;;;;;;5046307;28;20033;-70
2022/09/16 08:35:46;;;;;;;6.57;3.83;;;22.30;99.90;;;;;;5033586;28;20022;-70
2022/09/16 08:38:12;;;;;;;9.98;4.07;;;22.30;99.90;;;;;;5033142;28;20030;-70
2022/09/16 08:40:44;;;;;;;5.32;3.22;;;22.20;99.90;;;;;;5033311;28;20025;-68
2022/09/16 08:43:23;;;;;;;6.35;3.72;;;22.20;99.90;;;;;;5033184;28;20100;-68
2022/09/16 08:46:23;;;;;;;5.15;2.40;;;22.40;99.90;;;;;;5033624;28;20101;-70
2022/09/16 08:49:06;;;;;;;3.55;2.40;;;22.30;99.90;;;;;;5028570;28;20120;-70
2022/09/16 08:51:31;;;;;;;;;;;22.30;99.90;;;;;;5034086;28;20152;-70
2022/09/16 08:54:20;;;;;;;4.00;2.30;;;22.30;99.90;;;;;;5033563;28;19996;-70
2022/09/16 08:56:48;;;;;;;3.05;1.35;;;22.10;99.90;;;;;;5032911;28;20491;-69
2022/09/16 08:59:20;;;;;;;2.90;1.70;;;22.00;99.90;;;;;;5047320;28;20025;-69
2022/09/16 09:02:05;;;;;;;4.47;1.65;;;21.90;99.90;;;;;;5032827;28;20108;-70
2022/09/16 09:04:31;;;;;;;5.57;2.13;;;22.10;99.90;;;;;;5034692;28;20033;-69
2022/09/16 09:07:16;;;;;;;2.80;1.70;;;22.10;99.90;;;;;;5052443;28;20106;-70
2022/09/16 09:10:01;;;;;;;3.92;1.70;;;22.10;99.90;;;;;;5048454;28;20084;-67
2022/09/16 09:13:27;;;;;;;4.88;1.70;;;22.00;99.90;;;;;;5045522;28;20036;-69
2022/09/16 09:15:59;;;;;;;2.97;1.40;;;21.90;99.90;;;;;;5023593;28;20561;-69
2022/09/16 09:18:28;;;;;;;;;;;21.70;99.90;;;;;;5030498;28;20377;-68
2022/09/16 09:21:09;;;;;;;6.50;1.73;;;21.40;99.90;;;;;;5030451;28;20394;-65
2022/09/16 09:24:19;;;;;;;11.30;3.08;;;21.20;99.90;;;;;;5030306;28;20039;-71
2022/09/16 09:26:58;;;;;;;6.68;2.47;;;21.00;99.90;;;;;;4898092;29;20065;-67
2022/09/16 09:29:37;;;;;;;7.75;3.17;;;20.70;99.90;;;;;;4914016;29;20055;-67
2022/09/16 09:32:52;;;;;;;6.93;2.85;;;20.50;99.90;;;;;;4913821;29;20597;-65
2022/09/16 09:35:49;;;;;;;4.15;2.33;;;20.30;99.90;;;;;;4913892;29;20036;-70
2022/09/16 09:38:48;;;;;;;8.55;3.33;;;20.30;99.90;;;;;;4857261;29;20557;-70
2022/09/16 09:41:40;;;;;;;10.60;3.33;;;20.20;99.90;;;;;;4850301;29;20045;-69
2022/09/16 09:44:21;;;;;;;7.20;4.07;;;20.50;99.90;;;;;;4814864;29;20426;-70
2022/09/16 09:46:52;;;;;;;5.15;2.38;;;20.60;99.90;;;;;;4819112;29;20644;-70
2022/09/16 09:49:39;;;;;;;10.70;2.85;;;20.50;99.90;;;;;;4811928;29;20050;-69
2022/09/16 09:52:15;;;;;;;6.85;1.92;;;20.70;99.90;;;;;;4835521;29;20458;-68
2022/09/16 09:54:49;;;;;;;3.95;1.77;;;20.90;99.90;;;;;;4835016;29;20045;-69
2022/09/16 09:57:32;;;;;;;5.43;1.77;;;21.00;99.90;;;;;;4867245;29;20081;-69
2022/09/16 10:00:20;;;;;;;1.00;0.90;;;21.10;99.90;;;;;;4913532;29;20083;-70
2022/09/16 10:02:46;;;;;;;3.88;1.48;;;21.40;99.90;;;;;;4913642;29;20518;-68
2022/09/16 10:05:32;;;;;;;3.08;1.58;;;21.20;99.90;;;;;;4913875;29;20107;-68
2022/09/16 10:08:04;;;;;;;2.72;1.77;;;21.50;99.90;;;;;;4913489;29;20055;-70
2022/09/16 10:10:33;;;;;;;4.10;1.15;;;21.40;99.90;;;;;;4908359;29;20083;-69
2022/09/16 10:13:10;;;;;;;5.88;1.98;;;21.40;99.90;;;;;;4914879;29;20035;-70
2022/09/16 10:15:36;;;;;;;2.08;1.33;;;21.40;99.90;;;;;;4969096;28;20556;-70
2022/09/16 10:18:29;;;;;;;3.97;1.63;;;21.30;99.90;;;;;;4977280;28;20023;-69
2022/09/16 10:20:59;;;;;;;6.97;2.45;;;21.50;99.90;;;;;;4994378;28;20103;-69
2022/09/16 10:23:25;;;;;;;3.78;1.95;;;21.30;99.90;;;;;;5032259;28;20033;-68
2022/09/16 10:26:04;;;;;;;3.88;1.80;;;21.30;99.90;;;;;;5043209;28;20048;-68
2022/09/16 10:28:30;;;;;;;4.18;2.00;;;21.30;99.90;;;;;;5034101;28;20021;-69
2022/09/16 10:30:58;;;;;;;2.13;1.50;;;21.20;99.90;;;;;;5031806;28;20035;-69
2022/09/16 10:33:29;;;;;;;3.55;1.48;;;21.20;99.90;;;;;;5032014;28;20430;-69
2022/09/16 10:36:10;;;;;;;5.07;1.50;;;21.10;99.90;;;;;;5035701;28;20036;-68
2022/09/16 10:38:43;;;;;;;4.60;2.05;;;21.00;99.90;;;;;;5051131;28;20039;-69
2022/09/16 10:41:21;;;;;;;8.10;1.85;;;21.10;99.90;;;;;;5031282;28;20026;-69
2022/09/16 10:43:58;;;;;;;4.25;1.58;;;21.10;99.90;;;;;;5049751;28;20041;-68
2022/09/16 10:46:25;;;;;;;4.65;1.75;;;21.10;99.90;;;;;;5034893;28;20021;-67
2022/09/16 10:48:58;;;;;;;4.22;1.35;;;21.10;99.90;;;;;;5037037;28;20044;-68
2022/09/16 10:51:32;;;;;;;6.07;1.73;;;21.20;99.90;;;;;;5040762;28;20541;-69
2022/09/16 10:54:04;;;;;;;4.53;2.30;;;20.80;99.90;;;;;;5037598;28;20480;-70
2022/09/16 10:56:50;;;;;;;3.22;1.73;;;20.90;99.90;;;;;;5037236;28;20018;-69
2022/09/16 10:59:16;;;;;;;5.80;1.63;;;21.00;99.90;;;;;;5033260;28;20091;-68
2022/09/16 11:02:07;;;;;;;5.80;1.85;;;21.00;99.90;;;;;;5031317;28;20372;-67
2022/09/16 11:04:57;;;;;;;4.53;1.58;;;21.00;99.90;;;;;;5040404;28;20041;-67
2022/09/16 11:07:49;;;;;;;3.78;1.90;;;20.80;99.90;;;;;;5044847;28;20048;-68
2022/09/16 11:10:32;;;;;;;4.47;2.25;;;20.50;99.90;;;;;;5040243;28;20436;-70
2022/09/16 11:13:37;;;;;;;6.50;1.95;;;20.50;99.90;;;;;;5032162;28;20029;-72
2022/09/16 11:16:33;;;;;;;5.38;2.22;;;20.50;99.90;;;;;;5040168;28;20360;-71
2022/09/16 11:19:31;;;;;;;7.38;2.70;;;20.30;99.90;;;;;;5036517;28;20025;-70
2022/09/16 11:22:16;;;;;;;8.98;2.78;;;20.40;99.90;;;;;;5020652;28;20038;-71
2022/09/16 11:24:49;;;;;;;7.90;3.25;;;20.20;99.90;;;;;;5032335;28;20041;-71
2022/09/16 11:27:38;;;;;;;7.43;3.70;;;20.30;99.90;;;;;;5032125;28;20069;-70
2022/09/16 11:30:22;;;;;;;9.52;3.30;;;20.30;99.90;;;;;;5032251;28;20112;-70
2022/09/16 11:33:07;;;;;;;5.28;1.90;;;20.30;99.90;;;;;;5032008;28;20484;-70
2022/09/16 11:36:09;;;;;;;6.78;2.92;;;20.30;99.90;;;;;;5032399;28;20501;-70
2022/09/16 11:38:43;;;;;;;6.88;3.58;;;20.20;99.90;;;;;;5032310;28;20048;-70
2022/09/16 11:41:18;;;;;;;8.48;3.60;;;20.20;99.90;;;;;;5032651;28;20034;-70
2022/09/16 11:43:55;;;;;;;6.60;2.45;;;20.20;99.90;;;;;;5032032;28;20104;-70
2022/09/16 11:46:33;;;;;;;4.82;2.28;;;20.40;99.90;;;;;;5031654;28;20104;-70
2022/09/16 11:49:18;;;;;;;6.85;2.95;;;20.30;99.90;;;;;;5031637;28;20040;-70
2022/09/16 11:51:53;;;;;;;8.70;2.90;;;20.10;99.90;;;;;;5028830;28;20087;-69
2022/09/16 11:54:52;;;;;;;6.05;2.83;;;20.10;99.90;;;;;;5030624;28;20037;-70
2022/09/16 11:57:24;;;;;;;6.20;2.35;;;20.00;99.90;;;;;;5030413;28;20041;-70
2022/09/16 11:59:55;;;;;;;6.20;3.97;;;20.10;99.90;;;;;;5040524;28;20052;-70
2022/09/16 12:02:29;;;;;;;12.10;4.85;;;20.00;99.90;;;;;;5033067;28;20544;-70
2022/09/16 12:05:11;;;;;;;9.38;3.95;;;20.00;99.90;;;;;;5033508;28;20083;-70
2022/09/16 12:07:46;;;;;;;3.38;2.28;;;20.10;99.90;;;;;;5044286;28;20505;-71
2022/09/16 12:10:15;;;;;;;7.45;2.72;;;18.80;99.90;;;;;;5034097;28;20029;-71
2022/09/16 12:13:00;;;;;;;6.78;2.65;;;20.00;99.90;;;;;;5033202;28;20017;-70
2022/09/16 12:15:34;;;;;;;3.85;2.47;;;20.00;99.90;;;;;;5032996;28;20472;-70
2022/09/16 12:18:20;;;;;;;5.07;2.70;;;20.00;99.90;;;;;;5033222;28;20090;-70
2022/09/16 12:20:52;;;;;;;5.47;2.58;;;20.00;99.90;;;;;;5033415;28;20021;-70
2022/09/16 12:23:30;;;;;;;8.70;3.20;;;20.10;99.90;;;;;;5032146;28;20121;-70
2022/09/16 12:26:14;;;;;;;4.07;2.85;;;20.30;99.90;;;;;;5032567;28;20484;-70
2022/09/16 12:28:51;;;;;;;6.78;4.07;;;20.20;99.90;;;;;;5032168;28;20484;-69
2022/09/16 12:31:33;;;;;;;6.43;3.60;;;20.10;99.90;;;;;;5032202;28;20071;-69
2022/09/16 12:34:10;;;;;;;7.10;3.38;;;20.20;99.90;;;;;;5027286;28;20068;-71
2022/09/16 12:36:41;;;;;;;6.40;4.05;;;20.30;99.90;;;;;;5030264;28;20022;-70
2022/09/16 12:39:10;;;;;;;6.10;3.17;;;20.20;99.90;;;;;;5031386;28;20026;-69
2022/09/16 12:41:50;;;;;;;6.60;3.45;;;20.40;99.90;;;;;;5032138;28;20021;-70
2022/09/16 12:44:53;;;;;;;8.70;4.90;;;20.40;99.90;;;;;;5030544;28;20484;-69
2022/09/16 12:47:21;;;;;;;5.20;3.40;;;20.70;99.90;;;;;;5030115;28;20388;-70
2022/09/16 12:49:57;;;;;;;8.93;4.47;;;20.60;99.90;;;;;;5030451;28;20096;-69
2022/09/16 12:52:29;;;;;;;6.50;3.80;;;20.90;99.90;;;;;;5030730;28;20037;-69
2022/09/16 12:55:21;;;;;;;6.22;3.33;;;20.90;99.90;;;;;;5031472;28;20040;-69
2022/09/16 12:58:29;;;;;;;5.10;3.53;;;20.90;99.90;;;;;;5033996;28;20026;-70
2022/09/16 13:01:29;;;;;;;4.28;2.75;;;21.00;99.90;;;;;;5036315;28;20108;-69
2022/09/16 13:03:59;;;;;;;6.72;2.90;;;20.90;99.90;;;;;;5030804;28;20037;-69
2022/09/16 13:06:32;;;;;;;6.47;3.38;;;20.80;99.90;;;;;;5030956;28;20022;-69
2022/09/16 13:09:32;;;;;;;5.22;3.20;;;20.80;99.90;;;;;;5061841;28;20064;-69
2022/09/16 13:12:01;;;;;;;7.93;3.35;;;20.60;99.90;;;;;;5030769;28;20030;-69
2022/09/16 13:14:31;;;;;;;6.82;3.70;;;20.70;99.90;;;;;;5031060;28;20384;-69
2022/09/16 13:16:59;;;;;;;7.90;3.53;;;20.60;99.90;;;;;;5030607;28;20116;-68
2022/09/16 13:19:30;;;;;;;4.88;3.00;;;20.60;99.90;;;;;;5030681;28;20022;-68
2022/09/16 13:22:16;;;;;;;3.80;2.45;;;20.60;99.90;;;;;;5037769;28;20017;-69
2022/09/16 13:24:47;;;;;;;9.95;3.35;;;20.60;99.90;;;;;;5034643;28;20499;-69
2022/09/16 13:27:25;;;;;;;4.30;2.53;;;20.50;99.90;;;;;;5036389;28;20025;-69
2022/09/16 13:29:51;;;;;;;6.03;3.28;;;20.60;99.90;;;;;;5049438;28;20037;-67
2022/09/16 13:32:27;;;;;;;10.07;3.08;;;20.70;99.90;;;;;;5032418;28;20029;-67